Time;durP1;ratioP1;P1;durP2;ratioP2;P2;SDS_P1;SDS_P2;PMS_P1;PMS_P2;Temp;Humidity;BMP_temperature;BMP_pressure;BME280_temperature;BME280_humidity;BME280_pressure;Samples;Min_cycle;Max_cycle;Signal;HPM_P1;HPM_P2
2022/05/30 00:05:46;;;;;;;22.40;15.10;;;;;;;13.96;100.00;99974.50;712409;1178;115937;-78
2022/05/30 00:20:49;;;;;;;18.40;11.08;;;;;;;13.92;100.00;99967.06;712489;1177;115929;-78
2022/05/30 00:35:51;;;;;;;16.03;9.45;;;;;;;13.89;100.00;99962.13;712397;1180;115843;-78
2022/05/30 00:51:01;;;;;;;13.30;8.97;;;;;;;13.62;100.00;99956.19;712566;1179;115765;-78
2022/05/30 01:22:05;;;;;;;5.88;4.28;;;;;;;13.28;100.00;99943.91;712137;1178;116035;-77
2022/05/30 01:37:07;;;;;;;6.97;4.37;;;;;;;13.11;100.00;99930.69;712026;1178;114626;-77
2022/05/30 01:52:10;;;;;;;5.95;4.53;;;;;;;13.22;100.00;99936.64;712714;1178;115599;-77
2022/05/30 02:07:12;;;;;;;11.03;5.77;;;;;;;13.18;100.00;99919.52;712905;1178;115661;-78
2022/05/30 02:22:17;;;;;;;8.17;5.57;;;;;;;13.17;100.00;99902.91;712367;1179;115969;-78
2022/05/30 02:37:21;;;;;;;25.23;10.17;;;;;;;13.03;100.00;99898.26;712535;1178;115857;-77
2022/05/30 02:52:24;;;;;;;22.33;10.50;;;;;;;12.89;100.00;99897.05;712365;1177;115847;-77
2022/05/30 03:07:26;;;;;;;11.45;6.10;;;;;;;12.86;100.00;99889.48;712471;1177;115867;-77
2022/05/30 03:22:28;;;;;;;8.85;6.20;;;;;;;12.92;100.00;99884.40;712618;1177;115600;-76
2022/05/30 03:37:30;;;;;;;11.80;6.57;;;;;;;12.96;100.00;99898.08;712532;1180;114711;-77
2022/05/30 03:52:33;;;;;;;8.90;6.47;;;;;;;13.24;100.00;99901.25;712330;1177;115686;-77
2022/05/30 04:07:36;;;;;;;9.05;7.00;;;;;;;13.57;100.00;99897.88;712497;1178;115662;-75
2022/05/30 04:22:38;;;;;;;12.08;7.50;;;;;;;13.79;100.00;99891.94;712607;1180;115709;-76
2022/05/30 04:37:40;;;;;;;11.28;7.70;;;;;;;13.99;100.00;99894.23;712627;1180;115675;-76
2022/05/30 04:52:44;;;;;;;13.85;8.30;;;;;;;14.21;100.00;99900.59;712830;1177;115651;-77
2022/05/30 05:08:14;;;;;;;11.13;8.20;;;;;;;14.05;100.00;99898.81;713014;1179;114359;-77
2022/05/30 05:23:17;;;;;;;12.60;8.55;;;;;;;14.11;100.00;99894.70;713145;1179;115611;-77
2022/05/30 05:38:19;;;;;;;22.00;11.70;;;;;;;14.40;100.00;99891.50;713562;1178;116022;-78
2022/05/30 05:53:21;;;;;;;15.80;9.20;;;;;;;14.77;100.00;99884.78;718616;1178;115836;-79
2022/05/30 06:08:23;;;;;;;15.00;10.45;;;;;;;15.35;99.59;99876.52;713596;1180;114644;-77
2022/05/30 06:23:26;;;;;;;22.30;12.60;;;;;;;15.80;99.00;99874.85;717162;1180;115861;-77
2022/05/30 06:38:29;;;;;;;13.80;10.80;;;;;;;16.18;97.62;99878.45;712824;1179;114382;-78
2022/05/30 06:53:32;;;;;;;14.80;9.03;;;;;;;16.46;96.81;99876.00;712564;1180;115418;-76
2022/05/30 07:08:36;;;;;;;14.85;9.38;;;;;;;17.08;96.78;99853.52;713522;1179;115630;-76
2022/05/30 07:23:39;;;;;;;20.65;9.80;;;;;;;17.62;93.40;99860.13;713059;1178;114303;-74
2022/05/30 07:38:43;;;;;;;13.00;8.10;;;;;;;18.15;90.80;99864.20;713287;1177;114072;-75
2022/05/30 07:53:46;;;;;;;12.75;8.30;;;;;;;19.14;89.42;99864.02;713438;1178;114964;-76
2022/05/30 08:08:49;;;;;;;9.45;6.13;;;;;;;19.72;85.44;99850.13;713942;1178;114233;-77
2022/05/30 08:23:52;;;;;;;13.80;5.97;;;;;;;19.75;83.72;99845.20;713170;1177;115310;-74
2022/05/30 08:41:46;;;;;;;7.67;4.10;;;;;;;19.75;79.73;99844.39;716348;1180;114925;-75
2022/05/30 08:54:42;;;;;;;11.50;3.43;;;;;;;19.73;79.25;99835.78;713002;1177;114637;-75
2022/05/30 09:09:50;;;;;;;7.93;3.53;;;;;;;20.40;78.02;99812.52;713228;1179;116143;-75
2022/05/30 09:40:15;;;;;;;8.40;5.50;;;;;;;20.61;73.81;99800.75;714350;1179;115537;-76
2022/05/30 09:55:37;;;;;;;5.90;3.87;;;;;;;20.38;74.41;99797.78;713224;1178;114909;-75
2022/05/30 10:10:48;;;;;;;7.80;3.93;;;;;;;20.75;74.24;99780.19;713142;1180;115453;-75
2022/05/30 10:41:42;;;;;;;14.03;9.57;;;;;;;20.10;73.49;99802.38;712840;1179;115419;-74
2022/05/30 10:56:49;;;;;;;5.38;2.20;;;;;;;17.13;70.61;99816.68;713825;1178;115322;-75
2022/05/30 11:11:58;;;;;;;8.73;2.70;;;;;;;15.55;76.45;99844.33;713978;1180;114588;-76
2022/05/30 11:27:21;;;;;;;5.83;2.17;;;;;;;15.00;80.42;99856.77;717173;1178;114729;-77
2022/05/30 11:42:36;;;;;;;5.17;3.17;;;;;;;14.68;84.98;99848.86;713538;1170;115716;-76
2022/05/30 11:57:49;;;;;;;12.05;7.13;;;;;;;14.78;88.01;99838.06;712899;1179;115745;-77
2022/05/30 12:13:20;;;;;;;8.30;4.60;;;;;;;15.77;87.79;99830.23;713402;1178;115785;-79
2022/05/30 12:28:34;;;;;;;8.35;5.40;;;;;;;16.68;88.71;99834.53;713079;1177;115743;-75
2022/05/30 12:43:43;;;;;;;7.90;4.88;;;;;;;17.47;88.51;99827.56;717036;1178;115792;-75
2022/05/30 12:58:47;;;;;;;3.68;3.10;;;;;;;18.11;84.16;99823.95;713476;1180;115585;-73
2022/05/30 13:13:55;;;;;;;5.83;3.80;;;;;;;18.18;81.41;99820.52;713190;1180;115481;-75
2022/05/30 13:29:01;;;;;;;12.10;8.90;;;;;;;18.72;80.04;99837.50;712724;1178;115786;-73
2022/05/30 13:44:12;;;;;;;6.85;4.60;;;;;;;19.79;78.61;99846.45;713459;1180;114368;-74
2022/05/30 13:59:36;;;;;;;4.50;3.30;;;;;;;19.76;74.63;99824.75;712672;1179;115379;-74
2022/05/30 14:15:17;;;;;;;5.10;2.83;;;;;;;18.90;72.13;99845.75;712820;1178;115809;-75
2022/05/30 14:30:27;;;;;;;5.50;2.90;;;;;;;19.20;73.78;99848.08;713341;1180;114774;-75
2022/05/30 14:45:41;;;;;;;18.30;7.80;;;;;;;18.23;73.25;99861.38;713625;1178;115648;-75
2022/05/30 15:00:59;;;;;;;14.03;9.43;;;;;;;17.85;71.66;99869.68;713017;1180;114687;-74
2022/05/30 15:16:03;;;;;;;24.05;9.90;;;;;;;16.70;72.53;99874.88;712743;1177;115039;-75
2022/05/30 15:31:07;;;;;;;10.18;6.63;;;;;;;16.29;74.04;99894.70;712854;1177;115996;-72
2022/05/30 15:46:12;;;;;;;8.17;4.63;;;;;;;16.19;76.97;99895.98;712880;1179;115141;-72
2022/05/30 16:01:15;;;;;;;20.63;11.00;;;;;;;16.36;77.95;99902.73;713515;1177;114333;-73
2022/05/30 16:16:18;;;;;;;9.55;6.60;;;;;;;16.38;78.55;99926.40;713738;1179;115855;-73
2022/05/30 16:31:22;;;;;;;169.03;100.43;;;;;;;16.43;79.32;99935.43;713734;1180;114674;-76
2022/05/30 16:46:27;;;;;;;12.70;9.23;;;;;;;16.46;79.04;99958.07;713449;1179;115395;-74
2022/05/30 17:01:30;;;;;;;13.75;9.00;;;;;;;16.59;79.73;99963.55;715167;1178;114267;-77
2022/05/30 17:16:35;;;;;;;52.10;21.50;;;;;;;17.01;79.89;99969.23;715025;1180;115793;-77
2022/05/30 17:31:40;;;;;;;91.23;39.13;;;;;;;16.76;78.57;99971.30;713845;1180;115704;-77
2022/05/30 17:47:13;;;;;;;50.57;29.90;;;;;;;16.33;78.74;99979.05;715476;1179;115779;-76
2022/05/30 18:02:16;;;;;;;22.30;15.28;;;;;;;15.75;78.71;99982.95;714010;1180;115226;-75
2022/05/30 18:17:24;;;;;;;11.70;7.07;;;;;;;15.30;81.17;99985.38;714180;1180;114778;-78
2022/05/30 18:32:47;;;;;;;18.35;10.00;;;;;;;14.85;84.40;99991.38;714548;1180;115062;-76
2022/05/30 18:48:03;;;;;;;20.45;13.98;;;;;;;14.56;85.46;100014.67;714087;1180;115606;-76
2022/05/30 19:03:17;;;;;;;18.05;7.80;;;;;;;14.28;86.61;100024.78;714552;1180;115685;-74
2022/05/30 19:18:31;;;;;;;8.20;5.37;;;;;;;14.11;87.93;100056.41;713692;1178;115265;-73
2022/05/30 19:33:34;;;;;;;12.45;6.65;;;;;;;13.66;89.16;100055.03;718935;1178;115721;-74
2022/05/30 19:48:36;;;;;;;23.23;8.97;;;;;;;13.30;91.34;100057.83;713034;1180;115435;-74
2022/05/30 20:03:39;;;;;;;12.50;7.83;;;;;;;13.15;92.76;100053.16;713500;1178;115993;-73
2022/05/30 20:18:42;;;;;;;15.75;9.53;;;;;;;12.94;95.03;100061.44;712547;1179;115961;-73
2022/05/30 20:33:46;;;;;;;16.20;8.30;;;;;;;12.84;96.44;100075.70;712974;1180;115876;-74
2022/05/30 20:48:49;;;;;;;15.30;10.00;;;;;;;12.76;96.44;100084.36;712701;1179;115937;-75
2022/05/30 21:03:52;;;;;;;15.98;10.33;;;;;;;12.56;97.90;100108.23;712457;1177;116037;-74
2022/05/30 21:19:42;;;;;;;16.30;10.70;;;;;;;12.52;99.45;100124.48;712874;1179;115892;-75
2022/05/30 21:34:47;;;;;;;19.85;11.95;;;;;;;12.41;100.00;100118.48;712717;1178;114913;-74
2022/05/30 21:49:49;;;;;;;15.50;11.00;;;;;;;12.38;100.00;100124.05;712778;1178;115902;-74
2022/05/30 22:04:51;;;;;;;17.50;11.77;;;;;;;12.22;100.00;100123.88;712755;1179;116303;-74
2022/05/30 22:19:54;;;;;;;18.90;11.50;;;;;;;11.96;100.00;100135.14;712642;1180;115315;-74
2022/05/30 22:34:56;;;;;;;19.03;12.58;;;;;;;11.91;100.00;100146.05;712342;1178;115992;-75
2022/05/30 22:49:59;;;;;;;19.53;12.50;;;;;;;11.89;100.00;100149.80;712457;1180;116206;-74
2022/05/30 23:05:01;;;;;;;21.05;14.15;;;;;;;11.68;100.00;100169.30;712356;1180;115247;-73
2022/05/30 23:20:08;;;;;;;46.23;31.50;;;;;;;11.60;100.00;100177.89;712757;1179;114766;-73
2022/05/30 23:35:11;;;;;;;20.33;13.00;;;;;;;11.52;100.00;100195.34;712496;1178;115628;-73
2022/05/30 23:50:14;;;;;;;18.50;12.10;;;;;;;11.41;100.00;100191.91;712744;1178;115973;-74
